Time;durP1;ratioP1;P1;durP2;ratioP2;P2;SDS_P1;SDS_P2;PMS_P1;PMS_P2;Temp;Humidity;BMP_temperature;BMP_pressure;BME280_temperature;BME280_humidity;BME280_pressure;Samples;Min_cycle;Max_cycle;Signal;HPM_P1;HPM_P2
2022/12/20 00:01:17;;;;;;;14.20;9.57;;;5.70;99.90;;;;;;7398496;19;20153;-77
2022/12/20 00:03:43;;;;;;;17.67;10.60;;;5.80;99.90;;;;;;7397328;19;20162;-76
2022/12/20 00:06:10;;;;;;;19.27;10.40;;;5.70;99.90;;;;;;7398621;19;20202;-77
2022/12/20 00:08:37;;;;;;;15.00;9.13;;;5.80;99.90;;;;;;7397298;19;20154;-78
2022/12/20 00:11:05;;;;;;;18.00;10.27;;;5.90;99.90;;;;;;7398423;19;20151;-77
2022/12/20 00:13:31;;;;;;;14.23;9.30;;;5.90;99.90;;;;;;7397400;19;20630;-76
2022/12/20 00:16:05;;;;;;;14.00;9.20;;;5.80;99.90;;;;;;7398327;19;20158;-76
2022/12/20 00:18:30;;;;;;;15.83;8.97;;;5.80;99.90;;;;;;7397158;19;20150;-77
2022/12/20 00:21:00;;;;;;;16.30;9.77;;;5.90;99.90;;;;;;7396525;19;20135;-78
2022/12/20 00:23:28;;;;;;;16.23;10.37;;;5.80;99.90;;;;;;7399199;19;20142;-77
2022/12/20 00:26:00;;;;;;;15.67;10.50;;;5.80;99.90;;;;;;7396778;19;20138;-76
2022/12/20 00:28:26;;;;;;;13.20;8.73;;;5.60;99.90;;;;;;7397779;19;20142;-76
2022/12/20 00:30:56;;;;;;;15.47;9.80;;;5.30;99.90;;;;;;7394742;19;20161;-77
2022/12/20 00:33:22;;;;;;;16.93;9.80;;;5.50;99.90;;;;;;7396393;19;20143;-77
2022/12/20 00:35:47;;;;;;;15.77;10.57;;;5.60;99.90;;;;;;7398823;19;20135;-77
2022/12/20 00:38:13;;;;;;;15.47;10.03;;;5.70;99.90;;;;;;7398345;19;20139;-77
2022/12/20 00:40:42;;;;;;;15.30;10.97;;;5.70;99.90;;;;;;7396950;19;20178;-78
2022/12/20 00:43:08;;;;;;;18.97;11.80;;;5.70;99.90;;;;;;7396989;19;20604;-76
2022/12/20 00:45:33;;;;;;;15.40;9.90;;;5.80;99.90;;;;;;7394141;19;20511;-78
2022/12/20 00:47:59;;;;;;;17.93;10.40;;;5.50;99.90;;;;;;7399075;19;20569;-79
2022/12/20 00:50:25;;;;;;;17.63;10.67;;;5.50;99.90;;;;;;7396591;19;20154;-77
2022/12/20 00:52:51;;;;;;;16.60;10.47;;;5.50;99.90;;;;;;7396494;19;20282;-77
2022/12/20 00:55:17;;;;;;;15.10;9.33;;;5.40;99.90;;;;;;7396010;19;20171;-77
2022/12/20 00:57:42;;;;;;;13.40;9.83;;;5.50;99.90;;;;;;7400806;19;20143;-77
2022/12/20 01:00:08;;;;;;;15.77;10.60;;;5.70;99.90;;;;;;7395604;19;20135;-77
2022/12/20 01:02:34;;;;;;;17.03;10.17;;;5.70;99.90;;;;;;7396248;19;20150;-76
2022/12/20 01:05:00;;;;;;;15.63;9.23;;;5.70;99.90;;;;;;7393014;19;20210;-77
2022/12/20 01:07:26;;;;;;;15.60;10.13;;;5.70;99.90;;;;;;7397708;19;20135;-77
2022/12/20 01:09:51;;;;;;;17.67;10.70;;;5.80;99.90;;;;;;7397420;19;20155;-77
2022/12/20 01:12:17;;;;;;;17.00;10.20;;;5.80;99.90;;;;;;7396330;19;20155;-76
2022/12/20 01:14:43;;;;;;;15.50;9.70;;;5.80;99.90;;;;;;7397182;19;20218;-77
2022/12/20 01:17:09;;;;;;;16.27;10.50;;;5.80;99.90;;;;;;7397209;19;20485;-76
2022/12/20 01:19:35;;;;;;;16.97;10.53;;;5.90;99.90;;;;;;7395435;19;20138;-76
2022/12/20 01:22:01;;;;;;;16.60;10.87;;;5.90;99.90;;;;;;7395916;19;20616;-77
2022/12/20 01:24:26;;;;;;;15.40;10.00;;;5.80;99.90;;;;;;7393993;19;20618;-76
2022/12/20 01:26:52;;;;;;;15.50;10.40;;;5.80;99.90;;;;;;7395487;19;20590;-77
2022/12/20 01:29:18;;;;;;;18.93;11.10;;;5.50;99.90;;;;;;7394719;19;20175;-76
2022/12/20 01:31:44;;;;;;;16.13;10.57;;;5.40;99.90;;;;;;7395487;19;20797;-77
2022/12/20 01:34:11;;;;;;;17.07;10.20;;;5.40;99.90;;;;;;7393827;19;20130;-77
2022/12/20 01:36:37;;;;;;;15.67;9.80;;;5.60;99.90;;;;;;7395281;19;20139;-76
2022/12/20 01:39:07;;;;;;;17.17;9.67;;;5.60;99.90;;;;;;7394175;19;20135;-78
2022/12/20 01:41:34;;;;;;;15.93;9.83;;;5.60;99.90;;;;;;7392942;19;20242;-76
2022/12/20 01:44:03;;;;;;;15.63;10.00;;;5.50;99.90;;;;;;7386316;19;20146;-77
2022/12/20 01:46:35;;;;;;;13.60;8.83;;;5.70;99.90;;;;;;7393652;19;20137;-77
2022/12/20 01:49:13;;;;;;;14.93;9.57;;;5.80;99.90;;;;;;7396319;19;20198;-76
2022/12/20 01:51:45;;;;;;;15.77;10.10;;;5.80;99.90;;;;;;7393007;19;20131;-78
2022/12/20 01:54:46;;;;;;;16.97;10.23;;;5.70;99.90;;;;;;7395287;19;20135;-78
2022/12/20 01:57:17;;;;;;;14.40;9.57;;;5.70;99.90;;;;;;7393506;19;20138;-76
2022/12/20 01:59:45;;;;;;;14.80;9.67;;;5.60;99.90;;;;;;7395172;19;20598;-76
2022/12/20 02:02:12;;;;;;;19.33;10.03;;;5.70;99.90;;;;;;7394580;19;20134;-76
2022/12/20 02:04:39;;;;;;;14.60;10.50;;;5.70;99.90;;;;;;7391376;19;20170;-77
2022/12/20 02:07:06;;;;;;;16.43;10.60;;;5.80;99.90;;;;;;7392701;19;20156;-77
2022/12/20 02:09:34;;;;;;;14.97;9.63;;;5.80;99.90;;;;;;7393260;19;20135;-77
2022/12/20 02:12:15;;;;;;;15.03;9.40;;;5.80;99.90;;;;;;7395541;19;20209;-77
2022/12/20 02:15:00;;;;;;;17.23;9.87;;;5.80;99.90;;;;;;7393441;19;20142;-77
2022/12/20 02:17:34;;;;;;;13.60;9.53;;;5.70;99.90;;;;;;7395558;19;20139;-77
2022/12/20 02:20:37;;;;;;;13.53;8.57;;;5.50;99.90;;;;;;7394618;19;20592;-77
2022/12/20 02:23:28;;;;;;;15.27;8.83;;;5.50;99.90;;;;;;7394518;19;20176;-77
2022/12/20 02:26:29;;;;;;;14.47;9.57;;;5.40;99.90;;;;;;7393990;19;20150;-77
2022/12/20 02:29:09;;;;;;;18.10;10.53;;;5.50;99.90;;;;;;7390374;19;20178;-77
2022/12/20 02:31:50;;;;;;;12.43;9.00;;;5.70;99.90;;;;;;7395186;19;20141;-78
2022/12/20 02:34:17;;;;;;;14.67;9.23;;;5.40;99.90;;;;;;7391506;19;20187;-76
2022/12/20 02:36:43;;;;;;;14.60;9.33;;;5.60;99.90;;;;;;7394877;19;20139;-76
2022/12/20 02:39:14;;;;;;;14.70;9.03;;;5.60;99.90;;;;;;7392877;19;20142;-77
2022/12/20 02:41:47;;;;;;;14.27;9.13;;;5.60;99.90;;;;;;7391567;19;20142;-76
2022/12/20 02:47:04;;;;;;;14.17;9.60;;;5.60;99.90;;;;;;7393309;19;20149;-76
2022/12/20 02:49:33;;;;;;;16.43;10.57;;;5.60;99.90;;;;;;7394253;19;20138;-77
2022/12/20 02:52:00;;;;;;;14.40;9.87;;;5.60;99.90;;;;;;7392629;19;20142;-77
2022/12/20 02:54:27;;;;;;;16.43;9.43;;;5.70;99.90;;;;;;7393219;19;20168;-78
2022/12/20 02:57:34;;;;;;;12.67;8.30;;;5.30;99.90;;;;;;7390857;19;20602;-77
2022/12/20 03:00:11;;;;;;;11.23;8.43;;;5.50;99.90;;;;;;7392497;19;20154;-78
2022/12/20 03:05:26;;;;;;;12.53;8.40;;;5.10;99.90;;;;;;7392948;19;20138;-78
2022/12/20 03:07:52;;;;;;;12.67;7.90;;;5.30;99.90;;;;;;7393704;19;20149;-77
2022/12/20 03:10:18;;;;;;;14.43;8.77;;;5.20;99.90;;;;;;7393574;19;20587;-77
2022/12/20 03:12:44;;;;;;;14.20;8.67;;;5.40;99.90;;;;;;7392781;19;20145;-77
2022/12/20 03:15:11;;;;;;;13.03;8.10;;;5.50;99.90;;;;;;7391463;19;20175;-77
2022/12/20 03:17:36;;;;;;;13.47;8.70;;;5.40;99.90;;;;;;7390319;19;20153;-76
2022/12/20 03:20:05;;;;;;;16.93;8.83;;;5.40;99.90;;;;;;7388894;19;20135;-77
2022/12/20 03:22:32;;;;;;;13.07;7.93;;;5.50;99.90;;;;;;7388024;19;20634;-77
2022/12/20 03:24:59;;;;;;;15.13;8.67;;;5.20;99.90;;;;;;7390582;19;20162;-78
2022/12/20 03:27:27;;;;;;;13.03;8.17;;;5.10;99.90;;;;;;7394426;19;20127;-77
2022/12/20 03:29:55;;;;;;;12.60;8.27;;;5.30;99.90;;;;;;7394453;19;20149;-78
2022/12/20 03:32:22;;;;;;;11.97;8.10;;;5.60;99.90;;;;;;7391677;19;20130;-77
2022/12/20 03:34:47;;;;;;;12.73;7.73;;;5.70;99.90;;;;;;7391825;19;20163;-77
2022/12/20 03:37:14;;;;;;;11.67;8.03;;;5.80;99.90;;;;;;7389972;19;20139;-77
2022/12/20 03:39:39;;;;;;;14.87;8.27;;;5.50;99.90;;;;;;7392418;19;20141;-76
2022/12/20 03:42:05;;;;;;;16.00;8.90;;;5.70;99.90;;;;;;7392889;19;20178;-78
2022/12/20 03:44:31;;;;;;;14.37;8.73;;;5.70;99.90;;;;;;7389748;19;20575;-77
2022/12/20 03:46:57;;;;;;;13.23;8.97;;;5.70;99.90;;;;;;7390048;19;20142;-77
2022/12/20 03:49:22;;;;;;;13.97;9.47;;;5.70;99.90;;;;;;7386924;19;20194;-76
2022/12/20 03:51:48;;;;;;;15.90;9.87;;;5.80;99.90;;;;;;7388988;19;20135;-78
2022/12/20 03:54:14;;;;;;;15.73;9.67;;;5.80;99.90;;;;;;7390329;19;20138;-77
2022/12/20 03:56:39;;;;;;;14.70;9.93;;;5.90;99.90;;;;;;7390467;19;20130;-76
2022/12/20 03:59:05;;;;;;;14.97;10.00;;;5.90;99.90;;;;;;7391829;19;20182;-78
2022/12/20 04:01:35;;;;;;;13.80;9.50;;;5.90;99.90;;;;;;7392490;19;20138;-78
2022/12/20 04:04:01;;;;;;;17.17;9.97;;;5.80;99.90;;;;;;7390853;19;20151;-77
2022/12/20 04:06:28;;;;;;;14.50;9.20;;;5.90;99.90;;;;;;7397459;19;20222;-78
2022/12/20 04:08:53;;;;;;;14.33;9.10;;;5.90;99.90;;;;;;7399349;19;20146;-77
2022/12/20 04:11:19;;;;;;;16.80;9.73;;;5.90;99.90;;;;;;7398467;19;20154;-78
2022/12/20 04:13:46;;;;;;;18.60;9.83;;;5.90;99.90;;;;;;7398470;19;20134;-78
2022/12/20 04:16:18;;;;;;;14.70;9.47;;;5.90;99.90;;;;;;7399578;19;20588;-77
2022/12/20 04:18:44;;;;;;;12.93;9.63;;;6.10;99.90;;;;;;7397744;19;20583;-75
2022/12/20 04:21:11;;;;;;;14.70;9.43;;;6.00;99.90;;;;;;7397605;19;20159;-78
2022/12/20 04:23:39;;;;;;;14.97;9.10;;;5.90;99.90;;;;;;7398059;19;20146;-78
2022/12/20 04:26:06;;;;;;;12.93;9.43;;;5.90;99.90;;;;;;7396064;19;20146;-77
2022/12/20 04:28:33;;;;;;;12.77;8.33;;;5.90;99.90;;;;;;7396717;19;20154;-77
2022/12/20 04:30:59;;;;;;;14.73;9.40;;;5.90;99.90;;;;;;7398989;19;20843;-77
2022/12/20 04:33:26;;;;;;;13.90;9.20;;;6.00;99.90;;;;;;7397378;19;20206;-77
2022/12/20 04:35:54;;;;;;;14.87;9.37;;;5.90;99.90;;;;;;7396260;19;20178;-77
2022/12/20 04:38:20;;;;;;;15.17;8.87;;;5.90;99.90;;;;;;7397403;19;20198;-76
2022/12/20 04:40:51;;;;;;;18.73;10.23;;;6.00;99.90;;;;;;7398901;19;20143;-76
2022/12/20 04:43:18;;;;;;;15.17;9.77;;;5.90;99.90;;;;;;7396844;19;20229;-76
2022/12/20 04:45:46;;;;;;;17.97;9.70;;;5.90;99.90;;;;;;7395974;19;20186;-77
2022/12/20 04:48:12;;;;;;;14.17;9.27;;;5.90;99.90;;;;;;7395615;19;20253;-79
2022/12/20 04:50:38;;;;;;;17.37;10.40;;;6.00;99.90;;;;;;7395672;19;20139;-77
2022/12/20 04:55:48;;;;;;;13.83;8.73;;;6.00;99.90;;;;;;7398825;19;20143;-77
2022/12/20 04:58:14;;;;;;;15.13;9.20;;;6.00;99.90;;;;;;7396713;19;20158;-77
2022/12/20 05:00:40;;;;;;;13.33;8.53;;;6.00;99.90;;;;;;7398807;19;20138;-77
2022/12/20 05:03:05;;;;;;;13.57;8.70;;;6.00;99.90;;;;;;7395882;19;20198;-76
2022/12/20 05:05:31;;;;;;;14.33;8.93;;;6.00;99.90;;;;;;7393011;19;20224;-79
2022/12/20 05:07:57;;;;;;;14.23;8.17;;;6.10;99.90;;;;;;7397552;19;20142;-77
2022/12/20 05:10:23;;;;;;;15.20;9.30;;;6.10;99.90;;;;;;7394712;19;20505;-77
2022/12/20 05:12:49;;;;;;;15.43;9.33;;;6.10;99.90;;;;;;7393078;19;20146;-77
2022/12/20 05:15:15;;;;;;;13.23;9.13;;;6.10;99.90;;;;;;7395968;19;20135;-77
2022/12/20 05:17:41;;;;;;;14.50;9.40;;;5.90;99.90;;;;;;7396943;19;20131;-76
2022/12/20 05:20:07;;;;;;;16.27;9.50;;;5.90;99.90;;;;;;7394193;19;20579;-77
2022/12/20 05:28:02;;;;;;;14.20;8.60;;;6.00;99.90;;;;;;7395290;19;20143;-77
2022/12/20 05:30:28;;;;;;;17.57;9.73;;;6.00;99.90;;;;;;7395802;19;20653;-77
2022/12/20 05:32:54;;;;;;;12.27;9.10;;;6.10;99.90;;;;;;7393436;19;20147;-79
2022/12/20 05:35:20;;;;;;;13.13;8.50;;;6.10;99.90;;;;;;7394289;19;20150;-77
2022/12/20 05:37:46;;;;;;;15.90;9.20;;;6.10;99.90;;;;;;7393594;19;20495;-77
2022/12/20 05:40:12;;;;;;;12.67;8.50;;;6.10;99.90;;;;;;7396433;19;20211;-76
2022/12/20 05:42:38;;;;;;;12.80;8.60;;;5.90;99.90;;;;;;7394942;19;20254;-78
2022/12/20 05:45:04;;;;;;;15.43;8.17;;;5.80;99.90;;;;;;7392859;19;20171;-78
2022/12/20 05:47:32;;;;;;;14.57;8.53;;;5.90;99.90;;;;;;7395294;19;20139;-78
2022/12/20 05:49:59;;;;;;;20.13;9.33;;;6.20;99.90;;;;;;7393878;19;20161;-77
2022/12/20 05:52:25;;;;;;;13.63;8.80;;;6.10;99.90;;;;;;7394466;19;20576;-77
2022/12/20 05:54:51;;;;;;;16.17;9.73;;;6.10;99.90;;;;;;7392366;19;20172;-78
2022/12/20 05:57:17;;;;;;;15.20;9.37;;;6.10;99.90;;;;;;7390297;19;20158;-77
2022/12/20 05:59:43;;;;;;;16.37;9.10;;;6.10;99.90;;;;;;7395786;19;20143;-77
2022/12/20 06:02:12;;;;;;;16.03;9.40;;;6.10;99.90;;;;;;7392331;19;20579;-77
2022/12/20 06:04:38;;;;;;;15.50;8.93;;;6.10;99.90;;;;;;7392407;19;20191;-77
2022/12/20 06:07:04;;;;;;;16.57;8.83;;;5.80;99.90;;;;;;7394165;19;20668;-78
2022/12/20 06:09:31;;;;;;;14.70;8.93;;;6.00;99.90;;;;;;7394931;19;20159;-77
2022/12/20 06:11:58;;;;;;;12.67;8.50;;;6.00;99.90;;;;;;7395972;19;20160;-76
2022/12/20 06:14:24;;;;;;;16.17;9.37;;;6.10;99.90;;;;;;7396126;19;20142;-77
2022/12/20 06:16:50;;;;;;;16.50;9.70;;;6.20;99.90;;;;;;7394137;19;20147;-77
2022/12/20 06:19:16;;;;;;;14.80;9.10;;;6.10;99.90;;;;;;7395101;19;20606;-77
2022/12/20 06:21:42;;;;;;;14.53;8.63;;;5.90;99.90;;;;;;7393674;19;20202;-77
2022/12/20 06:24:07;;;;;;;16.50;8.90;;;5.90;99.90;;;;;;7392136;19;20540;-77
2022/12/20 06:26:36;;;;;;;15.53;9.47;;;5.80;99.90;;;;;;7394397;19;20138;-77
2022/12/20 06:29:05;;;;;;;16.93;8.90;;;5.80;99.90;;;;;;7391806;19;20222;-78
2022/12/20 06:31:32;;;;;;;14.27;9.07;;;5.90;99.90;;;;;;7392477;19;20159;-75
2022/12/20 06:33:59;;;;;;;15.50;9.90;;;6.00;99.90;;;;;;7393518;19;20150;-77
2022/12/20 06:36:25;;;;;;;17.37;9.57;;;6.10;99.90;;;;;;7396247;19;20748;-77
2022/12/20 06:38:51;;;;;;;17.37;10.17;;;6.10;99.90;;;;;;7395985;19;20142;-76
2022/12/20 06:41:17;;;;;;;15.80;8.97;;;6.10;99.90;;;;;;7397557;19;20138;-77
2022/12/20 06:43:43;;;;;;;18.07;9.70;;;6.10;99.90;;;;;;7394987;19;20155;-77
2022/12/20 06:46:08;;;;;;;14.73;8.93;;;6.10;99.90;;;;;;7394038;19;20142;-77
2022/12/20 06:48:34;;;;;;;17.23;8.67;;;5.70;99.90;;;;;;7396383;19;20142;-77
2022/12/20 06:51:00;;;;;;;17.80;9.10;;;5.70;99.90;;;;;;7390973;19;20158;-76
2022/12/20 06:53:26;;;;;;;13.93;9.03;;;5.90;99.90;;;;;;7390805;19;20149;-78
2022/12/20 06:55:51;;;;;;;15.43;9.00;;;5.80;99.90;;;;;;7391817;19;20142;-76
2022/12/20 06:58:19;;;;;;;16.70;9.67;;;6.00;99.90;;;;;;7392372;19;20502;-77
2022/12/20 07:00:45;;;;;;;16.17;10.07;;;6.20;99.90;;;;;;7392037;19;20158;-76
2022/12/20 07:03:14;;;;;;;18.57;9.47;;;6.20;99.90;;;;;;7389703;19;20171;-77
2022/12/20 07:05:41;;;;;;;15.10;8.50;;;6.30;99.90;;;;;;7389729;19;20235;-77
2022/12/20 07:08:08;;;;;;;16.83;9.77;;;6.30;99.90;;;;;;7391634;19;20146;-77
2022/12/20 07:10:35;;;;;;;14.37;9.00;;;6.40;99.90;;;;;;7393433;19;20575;-76
2022/12/20 07:13:00;;;;;;;15.83;10.03;;;6.30;99.90;;;;;;7390634;19;20133;-75
2022/12/20 07:15:26;;;;;;;15.43;9.60;;;6.20;99.90;;;;;;7392940;19;20587;-76
2022/12/20 07:17:53;;;;;;;14.23;9.37;;;6.20;99.90;;;;;;7389593;19;20134;-74
2022/12/20 07:20:19;;;;;;;15.40;9.07;;;6.10;99.90;;;;;;7390405;19;20138;-75
2022/12/20 07:22:48;;;;;;;14.73;9.43;;;6.10;99.90;;;;;;7391713;19;20151;-75
2022/12/20 07:25:14;;;;;;;15.27;9.13;;;6.30;99.90;;;;;;7387173;19;20146;-75
2022/12/20 07:27:40;;;;;;;15.43;9.40;;;6.30;99.90;;;;;;7388245;19;20507;-76
2022/12/20 07:30:08;;;;;;;15.53;9.03;;;6.30;99.90;;;;;;7388280;19;20224;-75
2022/12/20 07:32:34;;;;;;;19.90;11.03;;;6.30;99.90;;;;;;7386816;19;20139;-76
2022/12/20 07:35:00;;;;;;;19.10;11.20;;;6.30;99.90;;;;;;7388340;19;20145;-77
2022/12/20 07:37:28;;;;;;;19.43;10.27;;;6.40;99.90;;;;;;7388879;19;20207;-75
2022/12/20 07:39:53;;;;;;;18.70;9.67;;;6.20;99.90;;;;;;7395720;19;20507;-75
2022/12/20 07:42:19;;;;;;;13.87;9.00;;;6.20;99.90;;;;;;7392441;19;20154;-76
2022/12/20 07:44:46;;;;;;;15.20;9.23;;;6.30;99.90;;;;;;7396586;19;20131;-75
2022/12/20 07:47:12;;;;;;;14.23;9.00;;;6.30;99.90;;;;;;7395964;19;20187;-76
2022/12/20 07:49:38;;;;;;;13.63;8.73;;;6.50;99.90;;;;;;7397957;19;20135;-76
2022/12/20 07:52:05;;;;;;;16.77;9.20;;;6.50;99.90;;;;;;7390176;19;20156;-75
2022/12/20 07:54:34;;;;;;;13.90;9.00;;;6.40;99.90;;;;;;7396523;19;20149;-75
2022/12/20 07:57:11;;;;;;;13.63;8.80;;;6.50;99.90;;;;;;7396611;19;20611;-76
2022/12/20 07:59:45;;;;;;;16.23;8.37;;;6.50;99.90;;;;;;7395799;19;20494;-76
2022/12/20 08:02:17;;;;;;;13.73;9.07;;;6.50;99.90;;;;;;7395523;19;20155;-76
2022/12/20 08:04:43;;;;;;;17.77;11.30;;;6.50;99.90;;;;;;7395340;19;20142;-75
2022/12/20 08:07:10;;;;;;;14.77;9.33;;;6.40;99.90;;;;;;7393850;19;20172;-76
2022/12/20 08:09:40;;;;;;;15.97;8.23;;;6.50;99.90;;;;;;7401294;19;20141;-73
2022/12/20 08:12:09;;;;;;;14.60;9.03;;;6.50;99.90;;;;;;7397459;19;20130;-77
2022/12/20 08:14:36;;;;;;;13.23;7.83;;;6.50;99.90;;;;;;7396336;19;20131;-77
2022/12/20 08:17:03;;;;;;;13.30;8.97;;;6.60;99.90;;;;;;7389483;19;20134;-76
2022/12/20 08:19:29;;;;;;;12.37;8.00;;;6.60;99.90;;;;;;7395335;19;20138;-76
2022/12/20 08:21:55;;;;;;;14.93;8.50;;;6.60;99.90;;;;;;7396685;19;20143;-77
2022/12/20 08:24:21;;;;;;;14.77;8.60;;;6.60;99.90;;;;;;7393603;19;20135;-76
2022/12/20 08:26:46;;;;;;;14.77;8.37;;;6.70;99.90;;;;;;7396515;19;20160;-77
2022/12/20 08:29:12;;;;;;;14.33;8.17;;;6.80;99.90;;;;;;7396155;19;20468;-76
2022/12/20 08:31:39;;;;;;;14.03;8.50;;;6.80;99.90;;;;;;7402114;19;20465;-75
2022/12/20 08:34:05;;;;;;;12.77;7.70;;;6.70;99.90;;;;;;7399592;19;20210;-75
2022/12/20 08:36:31;;;;;;;10.57;7.30;;;6.60;99.90;;;;;;7395301;19;20615;-76
2022/12/20 08:38:57;;;;;;;11.73;7.70;;;6.70;99.90;;;;;;7395781;19;20157;-76
2022/12/20 08:41:24;;;;;;;15.67;8.13;;;6.70;99.90;;;;;;7395389;19;20166;-76
2022/12/20 08:43:49;;;;;;;16.00;9.23;;;6.70;99.90;;;;;;7390530;19;20139;-76
2022/12/20 08:46:15;;;;;;;15.40;9.73;;;6.80;99.90;;;;;;7396274;19;20155;-76
2022/12/20 08:48:41;;;;;;;10.33;7.23;;;6.60;99.90;;;;;;7393973;19;20127;-77
2022/12/20 08:51:09;;;;;;;11.47;7.60;;;6.70;99.90;;;;;;7393678;19;20126;-75
2022/12/20 08:53:37;;;;;;;20.63;7.87;;;6.80;99.90;;;;;;7396503;19;20156;-77
2022/12/20 08:56:12;;;;;;;10.60;7.10;;;6.90;99.90;;;;;;7393548;19;20210;-77
2022/12/20 08:58:39;;;;;;;11.23;6.97;;;7.00;99.90;;;;;;7398348;19;20630;-76
2022/12/20 09:01:07;;;;;;;13.63;7.30;;;6.90;99.90;;;;;;7396072;19;20122;-76
2022/12/20 09:03:35;;;;;;;9.33;6.67;;;7.00;99.90;;;;;;7394662;19;20167;-76
2022/12/20 09:06:05;;;;;;;9.37;6.50;;;7.00;99.90;;;;;;7392698;19;20138;-77
2022/12/20 09:08:32;;;;;;;10.00;6.53;;;7.00;99.90;;;;;;7393701;19;20131;-77
2022/12/20 09:11:11;;;;;;;14.83;7.63;;;7.20;99.90;;;;;;7394411;19;20142;-76
2022/12/20 09:13:38;;;;;;;11.20;6.60;;;7.20;99.90;;;;;;7393030;19;20135;-76
2022/12/20 09:16:05;;;;;;;10.77;7.03;;;7.10;99.90;;;;;;7394561;19;20593;-76
2022/12/20 09:18:31;;;;;;;10.40;6.30;;;7.20;99.90;;;;;;7394170;19;20525;-78
2022/12/20 09:21:04;;;;;;;12.10;7.17;;;7.10;99.90;;;;;;7395272;19;20135;-77
2022/12/20 09:23:31;;;;;;;11.07;6.03;;;7.20;99.90;;;;;;7392876;19;20230;-76
2022/12/20 09:26:10;;;;;;;8.87;6.23;;;7.20;99.90;;;;;;7393295;19;20615;-77
2022/12/20 09:28:36;;;;;;;9.43;6.03;;;7.10;99.90;;;;;;7396327;19;20197;-77
2022/12/20 09:31:04;;;;;;;9.30;6.03;;;7.10;99.90;;;;;;7395998;19;20169;-76
2022/12/20 09:33:31;;;;;;;8.73;5.67;;;7.10;99.90;;;;;;7390375;19;20518;-76
2022/12/20 09:35:58;;;;;;;10.03;6.00;;;7.10;99.90;;;;;;7394413;19;20142;-77
2022/12/20 09:38:24;;;;;;;9.37;6.60;;;7.10;99.90;;;;;;7394100;19;20154;-75
2022/12/20 09:40:54;;;;;;;11.83;7.40;;;7.10;99.90;;;;;;7394888;19;20142;-76
2022/12/20 09:43:21;;;;;;;11.87;6.50;;;7.10;99.90;;;;;;7397009;19;20578;-76
2022/12/20 09:45:55;;;;;;;13.83;8.63;;;7.10;99.90;;;;;;7389437;19;20163;-76
2022/12/20 09:48:36;;;;;;;11.10;7.07;;;7.10;99.90;;;;;;7391980;19;20149;-76
2022/12/20 09:51:40;;;;;;;9.60;6.27;;;7.20;99.90;;;;;;7394146;19;20131;-76
2022/12/20 09:54:28;;;;;;;7.73;5.00;;;7.20;99.90;;;;;;7392079;19;20134;-75
2022/12/20 09:57:09;;;;;;;7.93;5.10;;;7.30;99.90;;;;;;7393488;19;20636;-76
2022/12/20 09:59:39;;;;;;;10.67;5.97;;;7.30;99.90;;;;;;7388770;19;20139;-76
2022/12/20 10:02:22;;;;;;;10.70;6.93;;;7.40;99.90;;;;;;7391068;19;20144;-76
2022/12/20 10:04:48;;;;;;;12.87;7.63;;;7.40;99.90;;;;;;7388987;19;20174;-77
2022/12/20 10:07:43;;;;;;;14.10;7.90;;;7.60;99.90;;;;;;7393151;19;20166;-77
2022/12/20 10:10:36;;;;;;;17.00;10.30;;;7.70;99.90;;;;;;7394015;19;20178;-76
2022/12/20 10:13:14;;;;;;;12.17;8.10;;;7.60;99.90;;;;;;7392230;19;20142;-75
2022/12/20 10:15:56;;;;;;;11.73;7.13;;;7.60;99.90;;;;;;7392750;19;20591;-76
2022/12/20 10:18:37;;;;;;;10.77;6.80;;;7.50;99.90;;;;;;7390695;19;20507;-76
2022/12/20 10:21:22;;;;;;;10.20;7.00;;;7.60;99.90;;;;;;7392147;19;20149;-76
2022/12/20 10:24:01;;;;;;;12.07;7.83;;;7.70;99.90;;;;;;7397472;19;20686;-76
2022/12/20 10:26:28;;;;;;;9.67;7.60;;;7.80;99.90;;;;;;7393054;19;20468;-76
2022/12/20 10:28:54;;;;;;;12.90;7.97;;;7.90;99.90;;;;;;7392495;19;20692;-75
2022/12/20 10:31:20;;;;;;;11.87;7.63;;;7.90;99.90;;;;;;7390115;19;20146;-76
2022/12/20 10:33:46;;;;;;;13.87;7.97;;;7.80;99.90;;;;;;7389391;19;20153;-75
2022/12/20 10:36:25;;;;;;;12.43;7.53;;;7.80;99.90;;;;;;7390676;19;20138;-75
2022/12/20 10:39:00;;;;;;;12.00;7.20;;;7.90;99.90;;;;;;7400399;19;20621;-75
2022/12/20 10:41:32;;;;;;;12.33;8.00;;;8.00;99.90;;;;;;7397036;19;20172;-76
2022/12/20 10:44:16;;;;;;;11.73;7.67;;;7.90;99.90;;;;;;7392396;19;20214;-78
2022/12/20 10:46:47;;;;;;;14.40;8.20;;;8.00;99.90;;;;;;7392968;19;20142;-76
2022/12/20 10:49:31;;;;;;;12.83;8.10;;;8.00;99.90;;;;;;7385606;19;20189;-76
2022/12/20 10:52:08;;;;;;;12.27;7.80;;;8.00;99.90;;;;;;7389754;19;20180;-76
2022/12/20 10:54:37;;;;;;;11.93;7.40;;;8.00;99.90;;;;;;7390916;19;20139;-76
2022/12/20 10:57:16;;;;;;;15.07;8.73;;;7.90;99.90;;;;;;7397285;19;20149;-77
2022/12/20 10:59:47;;;;;;;13.33;7.27;;;8.00;99.90;;;;;;7400527;19;20151;-75
2022/12/20 11:02:25;;;;;;;10.20;6.90;;;7.80;99.90;;;;;;7391891;19;20582;-75
2022/12/20 11:05:10;;;;;;;13.20;7.70;;;7.60;99.90;;;;;;7389818;19;20221;-77
2022/12/20 11:07:50;;;;;;;11.17;7.70;;;7.70;99.90;;;;;;7396884;19;20316;-75
2022/12/20 11:10:20;;;;;;;11.50;7.57;;;7.80;99.90;;;;;;7396417;19;20153;-76
2022/12/20 11:12:58;;;;;;;13.50;7.27;;;7.80;99.90;;;;;;7393382;19;20156;-76
2022/12/20 11:15:26;;;;;;;12.63;7.20;;;7.70;99.90;;;;;;7398491;19;20198;-76
2022/12/20 11:18:00;;;;;;;10.87;6.97;;;7.80;99.90;;;;;;7404537;19;20240;-76
2022/12/20 11:20:48;;;;;;;11.20;7.17;;;7.90;99.90;;;;;;7402273;19;20161;-75
2022/12/20 11:23:13;;;;;;;11.93;7.60;;;8.00;99.90;;;;;;7403380;19;20130;-77
2022/12/20 11:25:54;;;;;;;12.63;7.90;;;8.00;99.90;;;;;;7402132;19;20222;-76
2022/12/20 11:28:25;;;;;;;13.03;7.93;;;8.00;99.90;;;;;;7406257;19;20148;-76
2022/12/20 11:30:54;;;;;;;15.33;7.40;;;8.00;99.90;;;;;;7402477;19;20126;-77
2022/12/20 11:33:51;;;;;;;13.03;7.97;;;8.10;99.90;;;;;;7407348;19;20373;-76
2022/12/20 11:36:40;;;;;;;11.70;7.93;;;8.10;99.90;;;;;;7411948;19;20138;-76
2022/12/20 11:39:27;;;;;;;10.33;7.30;;;8.10;99.90;;;;;;7408431;19;20163;-76
2022/12/20 11:42:04;;;;;;;10.77;7.40;;;8.20;99.90;;;;;;7403452;19;20530;-77
2022/12/20 11:44:51;;;;;;;10.97;7.60;;;8.30;99.90;;;;;;7403095;19;20157;-76
2022/12/20 11:47:41;;;;;;;12.60;7.33;;;8.10;99.90;;;;;;7398810;19;20146;-76
2022/12/20 11:50:31;;;;;;;9.33;7.13;;;8.10;99.90;;;;;;7405768;19;20160;-76
2022/12/20 11:53:23;;;;;;;11.73;6.93;;;8.00;99.90;;;;;;7404749;19;20127;-76
2022/12/20 11:55:54;;;;;;;15.20;6.67;;;8.00;99.90;;;;;;7403273;19;20150;-75
2022/12/20 11:58:46;;;;;;;9.93;5.60;;;8.00;99.90;;;;;;7403557;19;20138;-76
2022/12/20 12:01:16;;;;;;;13.13;8.03;;;8.00;99.90;;;;;;7402605;19;20214;-77
2022/12/20 12:04:14;;;;;;;17.27;8.33;;;8.00;99.90;;;;;;7402244;19;20465;-76
2022/12/20 12:07:08;;;;;;;12.87;8.37;;;8.00;99.90;;;;;;7403695;19;20595;-75
2022/12/20 12:09:44;;;;;;;11.83;6.97;;;8.20;99.90;;;;;;7406052;19;20153;-74
2022/12/20 12:12:33;;;;;;;10.43;6.80;;;8.20;99.90;;;;;;7411442;19;20595;-74
2022/12/20 12:15:21;;;;;;;11.27;7.50;;;8.20;99.90;;;;;;7404600;19;20603;-75
2022/12/20 12:17:59;;;;;;;13.17;7.50;;;8.30;99.90;;;;;;7406957;19;20198;-76
2022/12/20 12:20:53;;;;;;;9.63;6.53;;;8.30;99.90;;;;;;7404177;19;20142;-76
2022/12/20 12:23:45;;;;;;;11.00;6.40;;;8.20;99.90;;;;;;7400751;19;20153;-76
2022/12/20 12:26:20;;;;;;;10.53;7.50;;;8.20;99.90;;;;;;7396684;19;20134;-76
2022/12/20 12:28:50;;;;;;;10.17;7.17;;;8.40;99.90;;;;;;7396928;19;20602;-75
2022/12/20 12:31:20;;;;;;;12.03;7.67;;;8.50;99.90;;;;;;7398107;19;20142;-76
2022/12/20 12:33:56;;;;;;;12.53;7.50;;;8.40;99.90;;;;;;7394785;19;20165;-75
2022/12/20 12:36:51;;;;;;;12.00;7.90;;;8.30;99.90;;;;;;7394702;19;20151;-76
2022/12/20 12:39:25;;;;;;;13.10;7.03;;;8.30;99.90;;;;;;7396028;19;20138;-76
2022/12/20 12:42:02;;;;;;;11.47;7.33;;;8.30;99.90;;;;;;7396078;19;20593;-77
2022/12/20 12:44:45;;;;;;;11.67;7.17;;;8.30;99.90;;;;;;7394104;19;20218;-76
2022/12/20 12:47:22;;;;;;;11.10;7.20;;;8.30;99.90;;;;;;7396972;19;20213;-75
2022/12/20 12:49:51;;;;;;;16.00;7.43;;;8.30;99.90;;;;;;7395795;19;20138;-75
2022/12/20 12:52:40;;;;;;;11.20;6.27;;;8.30;99.90;;;;;;7397080;19;20231;-75
2022/12/20 12:55:39;;;;;;;11.73;6.10;;;8.30;99.90;;;;;;7395691;19;20139;-76
2022/12/20 12:58:23;;;;;;;9.37;5.47;;;8.30;99.90;;;;;;7395657;19;20202;-76
2022/12/20 13:01:10;;;;;;;9.87;7.13;;;8.40;99.90;;;;;;7396980;19;20594;-74
2022/12/20 13:03:51;;;;;;;11.27;7.20;;;8.60;99.90;;;;;;7392661;19;20146;-75
2022/12/20 13:06:37;;;;;;;11.00;7.37;;;8.90;99.90;;;;;;7397948;19;20483;-77
2022/12/20 13:09:02;;;;;;;12.63;7.33;;;8.70;99.90;;;;;;7393894;19;20147;-77
2022/12/20 13:11:36;;;;;;;12.77;6.80;;;8.60;99.90;;;;;;7400565;19;20145;-74
2022/12/20 13:14:20;;;;;;;11.27;6.97;;;8.50;99.90;;;;;;7399138;19;20159;-74
2022/12/20 13:16:54;;;;;;;11.83;6.93;;;8.40;99.90;;;;;;7394160;19;20162;-76
2022/12/20 13:19:25;;;;;;;10.30;6.93;;;8.40;99.90;;;;;;7394252;19;20482;-76